createdAt,value
2019-05-29T00:00:31.722Z,1010.53
2019-05-29T00:01:31.649Z,1010.52
2019-05-29T00:02:31.718Z,1010.55
2019-05-29T00:03:31.640Z,1010.60
2019-05-29T00:04:31.621Z,1010.57
2019-05-29T00:05:31.664Z,1010.58
2019-05-29T00:06:31.602Z,1010.60
2019-05-29T00:07:31.586Z,1010.63
2019-05-29T00:08:31.572Z,1010.71
2019-05-29T00:09:31.566Z,1010.62
2019-05-29T00:10:31.559Z,1010.66
2019-05-29T00:11:31.602Z,1010.65
2019-05-29T00:12:31.566Z,1010.73
2019-05-29T00:13:31.580Z,1010.64
2019-05-29T00:14:31.519Z,1010.62
2019-05-29T00:15:31.520Z,1010.64
2019-05-29T00:16:31.524Z,1010.67
2019-05-29T00:17:31.482Z,1010.66
2019-05-29T00:18:31.490Z,1010.68
2019-05-29T00:19:31.461Z,1010.64
2019-05-29T00:20:31.450Z,1010.70
2019-05-29T00:21:31.454Z,1010.78
2019-05-29T00:22:31.445Z,1010.81
2019-05-29T00:23:31.418Z,1010.82
2019-05-29T00:24:31.414Z,1010.79
2019-05-29T00:25:31.396Z,1010.79
2019-05-29T00:26:31.442Z,1010.77
2019-05-29T00:27:31.382Z,1010.81
2019-05-29T00:28:31.366Z,1010.80
2019-05-29T00:29:31.362Z,1010.91
2019-05-29T00:30:31.336Z,1010.85
2019-05-29T00:31:31.429Z,1010.87
2019-05-29T00:32:31.332Z,1010.85
2019-05-29T00:33:31.310Z,1010.91
2019-05-29T00:34:31.315Z,1010.99
2019-05-29T00:35:31.302Z,1010.99
2019-05-29T00:36:31.308Z,1010.99
2019-05-29T00:37:31.273Z,1010.97
2019-05-29T00:38:31.251Z,1010.99
2019-05-29T00:39:31.245Z,1010.98
2019-05-29T00:40:31.233Z,1010.97
2019-05-29T00:41:31.242Z,1010.99
2019-05-29T00:42:31.204Z,1011.01
2019-05-29T00:43:31.206Z,1011.02
2019-05-29T00:44:34.221Z,1011.00
2019-05-29T00:45:31.189Z,1010.95
2019-05-29T00:46:31.186Z,1010.96
2019-05-29T00:47:31.179Z,1010.95
2019-05-29T00:48:31.148Z,1010.91
2019-05-29T00:49:31.138Z,1010.94
2019-05-29T00:50:31.120Z,1010.94
2019-05-29T00:51:31.134Z,1010.96
2019-05-29T00:52:31.102Z,1010.98
2019-05-29T00:53:31.106Z,1010.98
2019-05-29T00:54:31.092Z,1010.99
2019-05-29T00:55:31.062Z,1010.97
2019-05-29T00:56:31.096Z,1010.99
2019-05-29T00:57:31.063Z,1010.94
2019-05-29T00:58:31.048Z,1011.01
2019-05-29T00:59:31.027Z,1011.03
2019-05-29T01:00:31.024Z,1011.04
2019-05-29T01:01:31.008Z,1010.99
2019-05-29T01:02:31.136Z,1011.09
2019-05-29T01:03:30.990Z,1011.06
2019-05-29T01:04:30.982Z,1011.08
2019-05-29T01:05:30.961Z,1011.13
2019-05-29T01:06:30.954Z,1011.13
2019-05-29T01:07:30.962Z,1011.10
2019-05-29T01:08:30.954Z,1011.12
2019-05-29T01:09:30.935Z,1011.09
2019-05-29T01:10:30.933Z,1011.12
2019-05-29T01:11:30.902Z,1011.17
2019-05-29T01:12:30.904Z,1011.20
2019-05-29T01:13:31.018Z,1011.20
2019-05-29T01:14:30.860Z,1011.23
2019-05-29T01:15:30.872Z,1011.22
2019-05-29T01:16:30.852Z,1011.24
2019-05-29T01:17:30.868Z,1011.27
2019-05-29T01:18:30.820Z,1011.33
2019-05-29T01:19:30.836Z,1011.37
2019-05-29T01:20:30.800Z,1011.42
2019-05-29T01:21:30.804Z,1011.37
2019-05-29T01:22:30.772Z,1011.43
2019-05-29T01:23:30.938Z,1011.43
2019-05-29T01:24:30.766Z,1011.41
2019-05-29T01:25:30.754Z,1011.45
2019-05-29T01:26:30.732Z,1011.38
2019-05-29T01:27:30.733Z,1011.37
2019-05-29T01:28:30.751Z,1011.39
2019-05-29T01:29:30.711Z,1011.39
2019-05-29T01:30:30.694Z,1011.52
2019-05-29T01:31:30.683Z,1011.49
2019-05-29T01:32:30.670Z,1011.48
2019-05-29T01:33:30.683Z,1011.51
2019-05-29T01:34:30.654Z,1011.53
2019-05-29T01:35:30.649Z,1011.57
2019-05-29T01:36:30.657Z,1011.59
2019-05-29T01:37:30.643Z,1011.57
2019-05-29T01:38:30.671Z,1011.59
2019-05-29T01:39:30.609Z,1011.64
2019-05-29T01:40:30.585Z,1011.56
2019-05-29T01:41:30.569Z,1011.61
2019-05-29T01:42:30.575Z,1011.61
2019-05-29T01:43:30.601Z,1011.62
2019-05-29T01:44:30.548Z,1011.63
2019-05-29T01:45:30.551Z,1011.72
2019-05-29T01:46:30.554Z,1011.73
2019-05-29T01:47:30.560Z,1011.80
2019-05-29T01:48:30.511Z,1011.77
2019-05-29T01:49:30.546Z,1011.79
2019-05-29T01:50:30.486Z,1011.79
2019-05-29T01:51:30.481Z,1011.77
2019-05-29T01:52:30.510Z,1011.76
2019-05-29T01:53:30.441Z,1011.79
2019-05-29T01:54:30.458Z,1011.78
2019-05-29T01:55:30.418Z,1011.81
2019-05-29T01:56:30.419Z,1011.83
2019-05-29T01:57:30.438Z,1011.84
2019-05-29T01:58:30.403Z,1011.84
2019-05-29T01:59:30.387Z,1011.85
2019-05-29T02:00:30.390Z,1011.86
2019-05-29T02:01:30.361Z,1011.90
2019-05-29T02:02:30.388Z,1011.89
2019-05-29T02:03:30.363Z,1011.88
2019-05-29T02:04:30.367Z,1011.88
2019-05-29T02:05:30.309Z,1011.88
2019-05-29T02:06:30.301Z,1011.89
2019-05-29T02:07:30.300Z,1011.88
2019-05-29T02:08:30.299Z,1011.95
2019-05-29T02:09:30.299Z,1011.90
2019-05-29T02:10:30.259Z,1011.91
2019-05-29T02:11:32.219Z,1011.95
2019-05-29T02:12:30.275Z,1011.94
2019-05-29T02:13:30.235Z,1011.97
2019-05-29T02:14:30.239Z,1012.00
2019-05-29T02:15:33.816Z,1012.00
2019-05-29T02:16:30.203Z,1012.01
2019-05-29T02:17:32.209Z,1011.97
2019-05-29T02:18:39.293Z,1012.00
2019-05-29T02:19:30.181Z,1012.01
2019-05-29T02:20:30.154Z,1012.05
2019-05-29T02:21:30.133Z,1012.05
2019-05-29T02:22:30.125Z,1012.07
2019-05-29T02:23:30.117Z,1012.11
2019-05-29T02:24:30.141Z,1012.13
2019-05-29T02:25:30.110Z,1012.16
2019-05-29T02:26:30.109Z,1012.20
2019-05-29T02:27:30.076Z,1012.22
2019-05-29T02:28:30.064Z,1012.26
2019-05-29T02:29:30.074Z,1012.23
2019-05-29T02:30:30.823Z,1012.20
2019-05-29T02:31:30.060Z,1012.19
2019-05-29T02:32:30.058Z,1012.22
2019-05-29T02:33:38.817Z,1012.24
2019-05-29T02:34:30.094Z,1012.25
2019-05-29T02:35:30.359Z,1012.26
2019-05-29T02:36:29.991Z,1012.23
2019-05-29T02:37:29.990Z,1012.21
2019-05-29T02:38:29.971Z,1012.29
2019-05-29T02:39:29.998Z,1012.27
2019-05-29T02:40:30.214Z,1012.29
2019-05-29T02:41:29.997Z,1012.35
2019-05-29T02:42:29.910Z,1012.34
2019-05-29T02:43:30.208Z,1012.34
2019-05-29T02:44:29.894Z,1012.37
2019-05-29T02:45:50.282Z,1012.39
2019-05-29T02:46:30.887Z,1012.37
2019-05-29T02:47:30.340Z,1012.35
2019-05-29T02:48:31.631Z,1012.34
2019-05-29T02:49:30.446Z,1012.36
2019-05-29T02:50:31.304Z,1012.35
2019-05-29T02:51:30.459Z,1012.34
2019-05-29T02:52:30.744Z,1012.34
2019-05-29T02:53:30.822Z,1012.37
2019-05-29T02:54:31.945Z,1012.30
2019-05-29T02:55:30.950Z,1012.32
2019-05-29T02:56:31.273Z,1012.37
2019-05-29T02:57:30.943Z,1012.39
2019-05-29T02:58:31.589Z,1012.40
2019-05-29T02:59:31.743Z,1012.44
2019-05-29T03:00:31.386Z,1012.52
2019-05-29T03:01:29.932Z,1012.54
2019-05-29T03:02:30.134Z,1012.59
2019-05-29T03:03:33.159Z,1012.60
2019-05-29T03:04:32.512Z,1012.68
2019-05-29T03:05:29.930Z,1012.68
2019-05-29T03:06:30.309Z,1012.66
2019-05-29T03:07:30.781Z,1012.71
2019-05-29T03:08:32.015Z,1012.68
2019-05-29T03:09:30.715Z,1012.67
2019-05-29T03:10:30.883Z,1012.74
2019-05-29T03:11:31.079Z,1012.75
2019-05-29T03:12:31.321Z,1012.71
2019-05-29T03:13:30.602Z,1012.72
2019-05-29T03:14:30.143Z,1012.77
2019-05-29T03:15:29.774Z,1012.81
2019-05-29T03:16:30.961Z,1012.83
2019-05-29T03:17:29.887Z,1012.89
2019-05-29T03:18:30.213Z,1012.94
2019-05-29T03:19:30.368Z,1012.95
2019-05-29T03:20:30.359Z,1013.06
2019-05-29T03:21:30.739Z,1013.05
2019-05-29T03:22:31.415Z,1013.01
2019-05-29T03:23:30.939Z,1013.06
2019-05-29T03:24:30.832Z,1013.10
2019-05-29T03:25:30.598Z,1013.11
2019-05-29T03:26:30.744Z,1013.17
2019-05-29T03:27:29.933Z,1013.14
2019-05-29T03:28:29.967Z,1013.17
2019-05-29T03:29:30.021Z,1013.12
2019-05-29T03:30:33.779Z,1013.19
2019-05-29T03:31:37.413Z,1013.19
2019-05-29T03:33:48.242Z,1013.27
2019-05-29T03:34:46.103Z,1013.27
2019-05-29T03:35:47.455Z,1013.31
2019-05-29T03:36:47.171Z,1013.30
2019-05-29T03:37:41.349Z,1013.30
2019-05-29T03:38:40.361Z,1013.37
2019-05-29T03:39:40.345Z,1013.40
2019-05-29T03:40:40.311Z,1013.37
2019-05-29T03:41:40.309Z,1013.37
2019-05-29T03:42:40.320Z,1013.43
2019-05-29T03:43:40.297Z,1013.44
2019-05-29T03:44:40.292Z,1013.51
2019-05-29T03:45:49.409Z,1013.47
2019-05-29T03:46:45.209Z,1013.56
2019-05-29T03:47:41.272Z,1013.58
2019-05-29T03:48:40.253Z,1013.57
2019-05-29T03:49:49.430Z,1013.59
2019-05-29T03:50:40.216Z,1013.62
2019-05-29T03:51:40.195Z,1013.62
2019-05-29T03:52:40.191Z,1013.65
2019-05-29T03:53:40.231Z,1013.64
2019-05-29T03:54:40.171Z,1013.69
2019-05-29T03:55:40.193Z,1013.74
2019-05-29T03:56:40.170Z,1013.65
2019-05-29T03:57:40.127Z,1013.74
2019-05-29T03:58:40.126Z,1013.74
2019-05-29T03:59:40.142Z,1013.69
2019-05-29T04:00:46.091Z,1013.77
2019-05-29T04:01:41.111Z,1013.76
2019-05-29T04:02:40.087Z,1013.77
2019-05-29T04:03:40.137Z,1013.79
2019-05-29T04:04:40.050Z,1013.86
2019-05-29T04:05:40.052Z,1013.88
2019-05-29T04:06:40.063Z,1013.82
2019-05-29T04:07:40.035Z,1013.89
2019-05-29T04:08:40.066Z,1013.90
2019-05-29T04:09:40.006Z,1013.91
2019-05-29T04:10:40.019Z,1013.93
2019-05-29T04:11:39.987Z,1013.93
2019-05-29T04:12:39.988Z,1013.96
2019-05-29T04:13:40.445Z,1013.99
2019-05-29T04:14:40.022Z,1013.99
2019-05-29T04:15:39.936Z,1014.01
2019-05-29T04:16:57.556Z,1013.98
2019-05-29T04:17:40.936Z,1014.02
2019-05-29T04:18:39.917Z,1014.01
2019-05-29T04:19:39.936Z,1014.05
2019-05-29T04:20:39.917Z,1014.06
2019-05-29T04:21:39.904Z,1014.04
2019-05-29T04:22:39.880Z,1014.10
2019-05-29T04:23:39.850Z,1014.15
2019-05-29T04:24:39.870Z,1014.15
2019-05-29T04:25:42.726Z,1014.15
2019-05-29T04:26:39.810Z,1014.17
2019-05-29T04:27:39.816Z,1014.21
2019-05-29T04:28:39.816Z,1014.23
2019-05-29T04:29:39.836Z,1014.26
2019-05-29T04:30:39.803Z,1014.25
2019-05-29T04:31:39.762Z,1014.22
2019-05-29T04:32:39.757Z,1014.25
2019-05-29T04:33:39.737Z,1014.27
2019-05-29T04:34:40.012Z,1014.29
2019-05-29T04:35:40.023Z,1014.26
2019-05-29T04:36:39.730Z,1014.34
2019-05-29T04:37:40.221Z,1014.35
2019-05-29T04:38:40.441Z,1014.33
2019-05-29T04:39:39.688Z,1014.37
2019-05-29T04:40:39.879Z,1014.34
2019-05-29T04:41:39.655Z,1014.38
2019-05-29T04:42:40.189Z,1014.37
2019-05-29T04:43:39.951Z,1014.47
2019-05-29T04:44:41.106Z,1014.42
2019-05-29T04:45:40.183Z,1014.43
2019-05-29T04:46:40.747Z,1014.50
2019-05-29T04:47:39.917Z,1014.49
2019-05-29T04:48:40.403Z,1014.54
2019-05-29T04:49:39.979Z,1014.54
2019-05-29T04:50:40.677Z,1014.46
2019-05-29T04:51:40.024Z,1014.53
2019-05-29T04:52:40.381Z,1014.53
2019-05-29T04:53:39.968Z,1014.57
2019-05-29T04:54:40.285Z,1014.53
2019-05-29T04:55:39.657Z,1014.60
2019-05-29T04:56:39.506Z,1014.56
2019-05-29T04:57:39.585Z,1014.57
2019-05-29T04:58:39.483Z,1014.62
2019-05-29T04:59:39.474Z,1014.57
2019-05-29T05:00:39.514Z,1014.65
2019-05-29T05:01:39.431Z,1014.62
2019-05-29T05:02:39.611Z,1014.70
2019-05-29T05:03:39.558Z,1014.65
2019-05-29T05:04:39.498Z,1014.72
2019-05-29T05:05:39.727Z,1014.67
2019-05-29T05:06:39.568Z,1014.76
2019-05-29T05:07:39.741Z,1014.74
2019-05-29T05:08:39.766Z,1014.82
2019-05-29T05:09:39.659Z,1014.81
2019-05-29T05:10:40.931Z,1014.83
2019-05-29T05:11:39.663Z,1014.86
2019-05-29T05:12:40.087Z,1014.89
2019-05-29T05:13:39.769Z,1014.95
2019-05-29T05:14:39.839Z,1014.93
2019-05-29T05:15:40.163Z,1014.97
2019-05-29T05:16:39.970Z,1014.91
2019-05-29T05:17:40.142Z,1015.02
2019-05-29T05:18:40.228Z,1015.06
2019-05-29T05:19:40.129Z,1015.04
2019-05-29T05:20:40.376Z,1015.06
2019-05-29T05:21:40.289Z,1014.99
2019-05-29T05:22:40.964Z,1015.00
2019-05-29T05:23:40.603Z,1015.02
2019-05-29T05:24:43.419Z,1015.03
2019-05-29T05:25:40.838Z,1015.07
2019-05-29T05:26:40.360Z,1015.06
2019-05-29T05:27:40.488Z,1015.08
2019-05-29T05:28:42.129Z,1015.05
2019-05-29T05:29:40.503Z,1015.11
2019-05-29T05:30:39.198Z,1015.13
2019-05-29T05:31:39.200Z,1015.07
2019-05-29T05:32:39.100Z,1015.15
2019-05-29T05:33:39.134Z,1015.17
2019-05-29T05:34:39.138Z,1015.17
2019-05-29T05:35:39.155Z,1015.21
2019-05-29T05:36:39.068Z,1015.31
2019-05-29T05:37:39.037Z,1015.29
2019-05-29T05:38:39.045Z,1015.31
2019-05-29T05:39:39.145Z,1015.32
2019-05-29T05:40:41.306Z,1015.29
2019-05-29T05:41:39.084Z,1015.27
2019-05-29T05:42:39.050Z,1015.30
2019-05-29T05:43:39.069Z,1015.28
2019-05-29T05:44:39.129Z,1015.29
2019-05-29T05:45:39.191Z,1015.34
2019-05-29T05:46:39.256Z,1015.31
2019-05-29T05:47:54.671Z,1015.39
2019-05-29T05:48:39.929Z,1015.39
2019-05-29T05:49:39.504Z,1015.43
2019-05-29T05:51:43.168Z,1015.45
2019-05-29T05:52:39.504Z,1015.47
2019-05-29T05:53:39.470Z,1015.49
2019-05-29T05:54:39.557Z,1015.58
2019-05-29T05:55:39.793Z,1015.50
2019-05-29T05:56:39.718Z,1015.55
2019-05-29T05:57:39.754Z,1015.56
2019-05-29T05:58:39.955Z,1015.50
2019-05-29T05:59:39.885Z,1015.57
2019-05-29T06:00:39.888Z,1015.55
2019-05-29T06:01:40.051Z,1015.56
2019-05-29T06:02:40.024Z,1015.53
2019-05-29T06:03:40.451Z,1015.65
2019-05-29T06:04:39.932Z,1015.61
2019-05-29T06:05:38.728Z,1015.60
2019-05-29T06:06:38.762Z,1015.68
2019-05-29T06:07:38.715Z,1015.66
2019-05-29T06:08:38.706Z,1015.68
2019-05-29T06:09:38.684Z,1015.71
2019-05-29T06:10:38.688Z,1015.79
2019-05-29T06:11:38.690Z,1015.78
2019-05-29T06:12:38.806Z,1015.80
2019-05-29T06:13:38.663Z,1015.84
2019-05-29T06:14:38.739Z,1015.81
2019-05-29T06:15:38.634Z,1015.88
2019-05-29T06:16:38.717Z,1015.90
2019-05-29T06:17:38.859Z,1015.91
2019-05-29T06:18:38.597Z,1015.93
2019-05-29T06:19:39.002Z,1015.97
2019-05-29T06:20:39.028Z,1015.95
2019-05-29T06:21:38.834Z,1015.96
2019-05-29T06:22:39.132Z,1015.99
2019-05-29T06:23:38.906Z,1015.95
2019-05-29T06:24:38.864Z,1015.92
2019-05-29T06:25:40.236Z,1015.95
2019-05-29T06:26:38.966Z,1015.94
2019-05-29T06:27:39.206Z,1015.91
2019-05-29T06:28:39.119Z,1015.90
2019-05-29T06:29:39.362Z,1015.95
2019-05-29T06:30:40.495Z,1016.00
2019-05-29T06:31:39.416Z,1015.99
2019-05-29T06:32:39.496Z,1016.03
2019-05-29T06:33:39.459Z,1016.02
2019-05-29T06:34:39.601Z,1016.04
2019-05-29T06:35:39.650Z,1016.04
2019-05-29T06:36:39.527Z,1016.00
2019-05-29T06:37:39.467Z,1016.01
2019-05-29T06:38:40.233Z,1016.03
2019-05-29T06:39:41.723Z,1016.04
2019-05-29T06:40:38.773Z,1016.04
2019-05-29T06:41:38.343Z,1016.07
2019-05-29T06:42:38.381Z,1016.04
2019-05-29T06:43:38.312Z,1016.05
2019-05-29T06:44:39.864Z,1016.10
2019-05-29T06:45:38.295Z,1016.12
2019-05-29T06:46:38.433Z,1016.12
2019-05-29T06:47:38.793Z,1016.16
2019-05-29T06:48:44.802Z,1016.18
2019-05-29T06:49:40.126Z,1016.20
2019-05-29T06:50:39.405Z,1016.18
2019-05-29T06:51:39.321Z,1016.16
2019-05-29T06:52:39.411Z,1016.21
2019-05-29T06:53:39.710Z,1016.28
2019-05-29T06:54:38.220Z,1016.26
2019-05-29T06:55:38.216Z,1016.34
2019-05-29T06:56:38.226Z,1016.27
2019-05-29T06:57:38.251Z,1016.36
2019-05-29T06:58:38.217Z,1016.27
2019-05-29T06:59:38.298Z,1016.37
2019-05-29T07:00:39.489Z,1016.39
2019-05-29T07:01:39.391Z,1016.43
2019-05-29T07:02:38.493Z,1016.44
2019-05-29T07:03:39.591Z,1016.42
2019-05-29T07:04:38.315Z,1016.42
2019-05-29T07:05:38.091Z,1016.52
2019-05-29T07:06:38.559Z,1016.43
2019-05-29T07:07:38.333Z,1016.46
2019-05-29T07:08:42.363Z,1016.52
2019-05-29T07:09:39.032Z,1016.52
2019-05-29T07:10:38.478Z,1016.53
2019-05-29T07:11:39.046Z,1016.53
2019-05-29T07:12:38.434Z,1016.55
2019-05-29T07:13:41.015Z,1016.59
2019-05-29T07:14:40.036Z,1016.62
2019-05-29T07:15:38.563Z,1016.59
2019-05-29T07:16:45.265Z,1016.59
2019-05-29T07:17:38.980Z,1016.59
2019-05-29T07:18:38.624Z,1016.58
2019-05-29T07:19:48.967Z,1016.63
2019-05-29T07:20:38.932Z,1016.64
2019-05-29T07:21:38.811Z,1016.70
2019-05-29T07:22:38.881Z,1016.70
2019-05-29T07:23:38.798Z,1016.78
2019-05-29T07:24:38.766Z,1016.78
2019-05-29T07:25:38.770Z,1016.79
2019-05-29T07:26:38.926Z,1016.79
2019-05-29T07:27:38.849Z,1016.79
2019-05-29T07:28:55.508Z,1016.73
2019-05-29T07:29:39.051Z,1016.77
2019-05-29T07:30:39.189Z,1016.83
2019-05-29T07:31:38.797Z,1016.78
2019-05-29T07:32:39.231Z,1016.84
2019-05-29T07:33:38.930Z,1016.86
2019-05-29T07:34:53.732Z,1016.87
2019-05-29T07:35:39.291Z,1016.93
2019-05-29T07:36:37.993Z,1017.01
2019-05-29T07:37:37.863Z,1016.96
2019-05-29T07:38:37.771Z,1016.87
2019-05-29T07:39:37.717Z,1017.00
2019-05-29T07:40:38.417Z,1016.95
2019-05-29T07:41:37.718Z,1016.96
2019-05-29T07:42:40.349Z,1017.02
2019-05-29T07:43:39.664Z,1016.97
2019-05-29T07:44:38.043Z,1017.01
2019-05-29T07:45:37.845Z,1016.97
2019-05-29T07:46:37.910Z,1017.04
2019-05-29T07:47:38.267Z,1017.02
2019-05-29T07:48:38.404Z,1016.99
2019-05-29T07:49:39.841Z,1017.09
2019-05-29T07:50:38.710Z,1017.07
2019-05-29T07:51:38.150Z,1017.09
2019-05-29T07:52:38.550Z,1016.99
2019-05-29T07:53:38.161Z,1017.04
2019-05-29T07:54:37.574Z,1017.06
2019-05-29T07:55:40.438Z,1017.07
2019-05-29T07:56:38.329Z,1017.03
2019-05-29T07:57:38.834Z,1017.03
2019-05-29T07:58:38.704Z,1017.11
2019-05-29T07:59:38.558Z,1017.14
2019-05-29T08:00:59.783Z,1017.11
2019-05-29T08:01:38.719Z,1017.09
2019-05-29T08:02:37.466Z,1017.08
2019-05-29T08:03:39.098Z,1017.13
2019-05-29T08:04:37.432Z,1017.14
2019-05-29T08:05:37.424Z,1017.22
2019-05-29T08:06:37.438Z,1017.16
2019-05-29T08:07:37.433Z,1017.17
2019-05-29T08:08:37.401Z,1017.21
2019-05-29T08:09:37.408Z,1017.22
2019-05-29T08:10:37.368Z,1017.18
2019-05-29T08:11:37.427Z,1017.23
2019-05-29T08:12:41.690Z,1017.28
2019-05-29T08:13:39.430Z,1017.17
2019-05-29T08:14:37.378Z,1017.23
2019-05-29T08:15:52.025Z,1017.23
2019-05-29T08:16:39.668Z,1017.20
2019-05-29T08:17:37.301Z,1017.23
2019-05-29T08:18:37.322Z,1017.24
2019-05-29T08:19:37.288Z,1017.28
2019-05-29T08:20:37.273Z,1017.32
2019-05-29T08:21:37.296Z,1017.25
2019-05-29T08:22:37.305Z,1017.30
2019-05-29T08:23:37.240Z,1017.26
2019-05-29T08:24:37.254Z,1017.31
2019-05-29T08:25:37.216Z,1017.27
2019-05-29T08:26:37.216Z,1017.30
2019-05-29T08:27:37.248Z,1017.27
2019-05-29T08:28:37.172Z,1017.35
2019-05-29T08:29:37.160Z,1017.35
2019-05-29T08:30:37.185Z,1017.28
2019-05-29T08:31:37.199Z,1017.44
2019-05-29T08:32:37.156Z,1017.37
2019-05-29T08:33:37.116Z,1017.41
2019-05-29T08:34:37.119Z,1017.43
2019-05-29T08:35:37.099Z,1017.43
2019-05-29T08:36:37.088Z,1017.42
2019-05-29T08:37:37.188Z,1017.54
2019-05-29T08:38:37.112Z,1017.52
2019-05-29T08:39:37.227Z,1017.50
2019-05-29T08:40:37.081Z,1017.51
2019-05-29T08:41:37.027Z,1017.44
2019-05-29T08:42:37.027Z,1017.47
2019-05-29T08:43:37.070Z,1017.46
2019-05-29T08:44:37.000Z,1017.49
2019-05-29T08:45:36.986Z,1017.49
2019-05-29T08:46:37.005Z,1017.49
2019-05-29T08:47:36.998Z,1017.48
2019-05-29T08:48:36.999Z,1017.47
2019-05-29T08:49:36.956Z,1017.57
2019-05-29T08:50:36.940Z,1017.50
2019-05-29T08:51:36.933Z,1017.53
2019-05-29T08:52:36.904Z,1017.52
2019-05-29T08:53:36.946Z,1017.50
2019-05-29T08:54:36.957Z,1017.54
2019-05-29T08:55:36.931Z,1017.56
2019-05-29T08:56:36.890Z,1017.56
2019-05-29T08:57:36.866Z,1017.55
2019-05-29T08:58:37.868Z,1017.55
2019-05-29T08:59:36.843Z,1017.62
2019-05-29T09:00:36.849Z,1017.59
2019-05-29T09:01:36.895Z,1017.63
2019-05-29T09:02:46.651Z,1017.62
2019-05-29T09:03:36.860Z,1017.70
2019-05-29T09:04:36.826Z,1017.67
2019-05-29T09:05:36.769Z,1017.67
2019-05-29T09:06:36.779Z,1017.73
2019-05-29T09:07:36.751Z,1017.67
2019-05-29T09:08:37.051Z,1017.67
2019-05-29T09:09:36.802Z,1017.69
2019-05-29T09:10:36.702Z,1017.66
2019-05-29T09:11:36.711Z,1017.67
2019-05-29T09:12:36.718Z,1017.65
2019-05-29T09:13:36.724Z,1017.70
2019-05-29T09:14:36.690Z,1017.67
2019-05-29T09:15:36.648Z,1017.71
2019-05-29T09:16:36.703Z,1017.76
2019-05-29T09:17:36.641Z,1017.79
2019-05-29T09:18:36.619Z,1017.81
2019-05-29T09:19:36.816Z,1017.68
2019-05-29T09:21:00.092Z,1017.82
2019-05-29T09:21:37.588Z,1017.80
2019-05-29T09:22:36.578Z,1017.73
2019-05-29T09:23:36.606Z,1017.71
2019-05-29T09:24:36.602Z,1017.66
2019-05-29T09:25:36.575Z,1017.69
2019-05-29T09:26:36.548Z,1017.67
2019-05-29T09:27:36.581Z,1017.67
2019-05-29T09:28:36.528Z,1017.71
2019-05-29T09:29:36.556Z,1017.72
2019-05-29T09:30:36.545Z,1017.74
2019-05-29T09:31:36.498Z,1017.78
2019-05-29T09:32:50.599Z,1017.73
2019-05-29T09:33:37.593Z,1017.75
2019-05-29T09:34:36.599Z,1017.76
2019-05-29T09:35:36.482Z,1017.89
2019-05-29T09:36:36.443Z,1017.82
2019-05-29T09:37:37.512Z,1017.90
2019-05-29T09:38:36.405Z,1017.85
2019-05-29T09:39:36.505Z,1017.88
2019-05-29T09:40:36.415Z,1017.83
2019-05-29T09:41:36.404Z,1017.89
2019-05-29T09:42:36.388Z,1017.91
2019-05-29T09:43:36.377Z,1017.87
2019-05-29T09:44:39.357Z,1017.86
2019-05-29T09:45:36.329Z,1017.94
2019-05-29T09:46:36.328Z,1017.97
2019-05-29T09:47:36.316Z,1017.90
2019-05-29T09:48:49.090Z,1017.86
2019-05-29T09:49:39.330Z,1017.82
2019-05-29T09:50:49.485Z,1017.86
2019-05-29T09:51:37.270Z,1017.92
2019-05-29T09:52:36.274Z,1017.89
2019-05-29T09:53:36.262Z,1017.82
2019-05-29T09:54:36.300Z,1017.85
2019-05-29T09:55:36.215Z,1017.94
2019-05-29T09:56:36.209Z,1017.95
2019-05-29T09:57:36.211Z,1018.01
2019-05-29T09:58:36.183Z,1017.96
2019-05-29T09:59:36.212Z,1018.02
2019-05-29T10:00:36.159Z,1018.08
2019-05-29T10:01:36.153Z,1018.08
2019-05-29T10:02:36.145Z,1018.01
2019-05-29T10:03:36.141Z,1017.99
2019-05-29T10:04:36.193Z,1018.07
2019-05-29T10:05:36.115Z,1018.12
2019-05-29T10:06:36.099Z,1018.14
2019-05-29T10:07:36.091Z,1018.08
2019-05-29T10:08:36.159Z,1018.02
2019-05-29T10:09:36.130Z,1018.11
2019-05-29T10:10:36.053Z,1018.07
2019-05-29T10:11:36.099Z,1018.07
2019-05-29T10:12:36.133Z,1018.07
2019-05-29T10:13:36.018Z,1018.04
2019-05-29T10:14:36.050Z,1018.15
2019-05-29T10:15:36.039Z,1018.06
2019-05-29T10:16:36.025Z,1018.05
2019-05-29T10:17:36.000Z,1018.09
2019-05-29T10:18:36.017Z,1018.09
2019-05-29T10:19:35.953Z,1018.05
2019-05-29T10:20:36.069Z,1018.09
2019-05-29T10:21:40.691Z,1018.08
2019-05-29T10:22:37.012Z,1018.12
2019-05-29T10:23:35.909Z,1018.11
2019-05-29T10:24:35.896Z,1018.14
2019-05-29T10:25:35.918Z,1018.22
2019-05-29T10:26:35.938Z,1018.20
2019-05-29T10:27:35.939Z,1018.17
2019-05-29T10:28:50.444Z,1018.13
2019-05-29T10:29:36.935Z,1018.14
2019-05-29T10:30:35.984Z,1018.12
2019-05-29T10:31:35.987Z,1018.17
2019-05-29T10:32:35.822Z,1018.11
2019-05-29T10:33:37.854Z,1018.06
2019-05-29T10:34:35.823Z,1018.11
2019-05-29T10:35:35.908Z,1018.08
2019-05-29T10:36:35.826Z,1018.12
2019-05-29T10:37:35.831Z,1018.14
2019-05-29T10:38:35.793Z,1018.21
2019-05-29T10:39:35.803Z,1018.18
2019-05-29T10:40:35.723Z,1018.25
2019-05-29T10:43:36.902Z,1018.24
2019-05-29T10:44:56.694Z,1018.24
2019-05-29T10:45:35.678Z,1018.23
2019-05-29T10:46:35.793Z,1018.21
2019-05-29T10:47:35.662Z,1018.21
2019-05-29T10:48:35.655Z,1018.19
2019-05-29T10:49:35.650Z,1018.29
2019-05-29T10:50:35.678Z,1018.24
2019-05-29T10:51:35.784Z,1018.22
2019-05-29T10:52:35.658Z,1018.26
2019-05-29T10:53:35.581Z,1018.28
2019-05-29T10:54:39.099Z,1018.39
2019-05-29T10:55:35.575Z,1018.29
2019-05-29T10:56:35.633Z,1018.30
2019-05-29T10:57:35.574Z,1018.30
2019-05-29T10:58:48.391Z,1018.35
2019-05-29T10:59:36.526Z,1018.41
2019-05-29T11:00:38.699Z,1018.33
2019-05-29T11:01:35.595Z,1018.38
2019-05-29T11:02:35.551Z,1018.44
2019-05-29T11:03:35.490Z,1018.34
2019-05-29T11:04:35.597Z,1018.25
2019-05-29T11:05:35.462Z,1018.33
2019-05-29T11:06:39.957Z,1018.25
2019-05-29T11:07:36.622Z,1018.30
2019-05-29T11:08:35.483Z,1018.31
2019-05-29T11:09:44.612Z,1018.40
2019-05-29T11:10:36.460Z,1018.56
2019-05-29T11:11:37.447Z,1018.65
2019-05-29T11:12:39.098Z,1018.67
2019-05-29T11:13:35.429Z,1018.68
2019-05-29T11:15:36.532Z,1018.78
2019-05-29T11:16:39.574Z,1018.77
2019-05-29T11:17:36.507Z,1018.77
2019-05-29T11:18:35.443Z,1018.70
2019-05-29T11:19:35.310Z,1018.71
2019-05-29T11:20:35.298Z,1018.68
2019-05-29T11:21:35.388Z,1018.68
2019-05-29T11:22:35.418Z,1018.75
2019-05-29T11:23:35.311Z,1018.74
2019-05-29T11:24:35.429Z,1018.76
2019-05-29T11:25:35.251Z,1018.76
2019-05-29T11:26:35.278Z,1018.74
2019-05-29T11:27:35.288Z,1018.77
2019-05-29T11:28:35.247Z,1018.75
2019-05-29T11:29:35.214Z,1018.82
2019-05-29T11:30:35.203Z,1018.73
2019-05-29T11:31:35.266Z,1018.83
2019-05-29T11:32:35.254Z,1018.73
2019-05-29T11:33:38.193Z,1018.72
2019-05-29T11:34:35.201Z,1018.76
2019-05-29T11:35:35.209Z,1018.71
2019-05-29T11:37:36.320Z,1018.73
2019-05-29T11:38:35.146Z,1018.70
2019-05-29T11:39:38.251Z,1018.69
2019-05-29T11:40:37.436Z,1018.71
2019-05-29T11:41:35.162Z,1018.73
2019-05-29T11:42:39.229Z,1018.73
2019-05-29T11:43:37.190Z,1018.40
2019-05-29T11:44:35.228Z,1018.44
2019-05-29T11:45:39.156Z,1018.47
2019-05-29T11:46:35.109Z,1018.46
2019-05-29T11:47:35.043Z,1018.43
2019-05-29T11:48:35.031Z,1018.38
2019-05-29T11:49:35.033Z,1018.45
2019-05-29T11:50:35.003Z,1018.40
2019-05-29T11:51:35.003Z,1018.52
2019-05-29T11:52:42.834Z,1018.41
2019-05-29T11:53:38.035Z,1018.75
2019-05-29T11:54:36.721Z,1018.69
2019-05-29T11:55:37.059Z,1018.73
2019-05-29T11:56:35.001Z,1018.69
2019-05-29T11:58:36.210Z,1018.72
2019-05-29T11:59:35.096Z,1018.68
2019-05-29T12:01:49.644Z,1018.69
2019-05-29T12:04:23.163Z,1018.69
2019-05-29T12:07:09.194Z,1018.78
2019-05-29T12:08:09.184Z,1018.65
2019-05-29T12:09:09.170Z,1018.52
2019-05-29T12:10:11.416Z,1018.70
2019-05-29T12:21:52.327Z,1018.72
2019-05-29T12:23:25.138Z,1018.71
2019-05-29T12:25:03.013Z,1018.73
2019-05-29T12:26:20.953Z,1018.69
2019-05-29T12:27:06.964Z,1018.71
2019-05-29T12:28:03.429Z,1018.70
2019-05-29T12:30:03.316Z,1018.68